sensor_id;sensor_type;location;lat;lon;timestamp;temperature;humidity
31575;DHT22;18182;1.328;103.810;2023-03-14T00:00:50;28.10;99.90
31575;DHT22;18182;1.328;103.810;2023-03-14T00:03:16;28.10;99.90
31575;DHT22;18182;1.328;103.810;2023-03-14T00:05:42;28.10;99.90
31575;DHT22;18182;1.328;103.810;2023-03-14T00:08:08;28.00;99.90
31575;DHT22;18182;1.328;103.810;2023-03-14T00:10:35;27.90;99.90
31575;DHT22;18182;1.328;103.810;2023-03-14T00:13:01;27.90;99.90
31575;DHT22;18182;1.328;103.810;2023-03-14T00:15:27;27.90;99.90
31575;DHT22;18182;1.328;103.810;2023-03-14T00:17:54;27.90;99.90
31575;DHT22;18182;1.328;103.810;2023-03-14T00:20:20;28.00;99.90
31575;DHT22;18182;1.328;103.810;2023-03-14T00:22:46;28.10;99.90
31575;DHT22;18182;1.328;103.810;2023-03-14T00:25:12;28.20;99.90
31575;DHT22;18182;1.328;103.810;2023-03-14T00:27:38;28.20;99.90
31575;DHT22;18182;1.328;103.810;2023-03-14T00:30:05;28.20;99.90
31575;DHT22;18182;1.328;103.810;2023-03-14T00:32:33;28.30;99.90
31575;DHT22;18182;1.328;103.810;2023-03-14T00:34:59;28.30;99.90
31575;DHT22;18182;1.328;103.810;2023-03-14T00:37:26;28.30;99.90
31575;DHT22;18182;1.328;103.810;2023-03-14T00:39:52;28.40;99.90
31575;DHT22;18182;1.328;103.810;2023-03-14T00:42:19;28.40;99.90
31575;DHT22;18182;1.328;103.810;2023-03-14T00:44:45;28.40;99.90
31575;DHT22;18182;1.328;103.810;2023-03-14T00:47:11;28.40;99.90
31575;DHT22;18182;1.328;103.810;2023-03-14T00:49:37;28.40;99.90
31575;DHT22;18182;1.328;103.810;2023-03-14T00:52:03;28.40;99.90
31575;DHT22;18182;1.328;103.810;2023-03-14T00:54:29;28.40;99.90
31575;DHT22;18182;1.328;103.810;2023-03-14T00:56:56;28.40;99.90
31575;DHT22;18182;1.328;103.810;2023-03-14T00:59:22;28.40;99.90
31575;DHT22;18182;1.328;103.810;2023-03-14T01:01:48;28.50;99.90
31575;DHT22;18182;1.328;103.810;2023-03-14T01:04:14;28.50;99.90
31575;DHT22;18182;1.328;103.810;2023-03-14T01:06:40;28.50;99.90
31575;DHT22;18182;1.328;103.810;2023-03-14T01:09:06;28.40;99.90
31575;DHT22;18182;1.328;103.810;2023-03-14T01:11:33;28.40;99.90
31575;DHT22;18182;1.328;103.810;2023-03-14T01:14:00;28.30;99.90
31575;DHT22;18182;1.328;103.810;2023-03-14T01:16:28;28.20;99.90
31575;DHT22;18182;1.328;103.810;2023-03-14T01:18:55;28.20;99.90
31575;DHT22;18182;1.328;103.810;2023-03-14T01:21:31;28.10;99.90
31575;DHT22;18182;1.328;103.810;2023-03-14T01:23:58;28.20;99.90
31575;DHT22;18182;1.328;103.810;2023-03-14T01:26:25;28.20;99.90
31575;DHT22;18182;1.328;103.810;2023-03-14T01:28:52;28.20;99.90
31575;DHT22;18182;1.328;103.810;2023-03-14T01:31:19;28.20;99.90
31575;DHT22;18182;1.328;103.810;2023-03-14T01:33:45;28.20;99.90
31575;DHT22;18182;1.328;103.810;2023-03-14T01:36:11;28.30;99.90
31575;DHT22;18182;1.328;103.810;2023-03-14T01:38:38;28.30;99.90
31575;DHT22;18182;1.328;103.810;2023-03-14T01:41:05;28.40;99.90
31575;DHT22;18182;1.328;103.810;2023-03-14T01:43:32;28.40;99.90
31575;DHT22;18182;1.328;103.810;2023-03-14T01:48:25;28.40;99.90
31575;DHT22;18182;1.328;103.810;2023-03-14T01:50:52;28.40;99.90
31575;DHT22;18182;1.328;103.810;2023-03-14T01:53:18;28.30;99.90
31575;DHT22;18182;1.328;103.810;2023-03-14T01:55:47;28.30;99.90
31575;DHT22;18182;1.328;103.810;2023-03-14T01:58:13;28.30;99.90
31575;DHT22;18182;1.328;103.810;2023-03-14T02:00:40;28.30;99.90
31575;DHT22;18182;1.328;103.810;2023-03-14T02:03:07;28.40;99.90
31575;DHT22;18182;1.328;103.810;2023-03-14T02:05:38;28.50;99.90
31575;DHT22;18182;1.328;103.810;2023-03-14T02:08:08;28.50;99.90
31575;DHT22;18182;1.328;103.810;2023-03-14T02:10:38;28.60;99.90
31575;DHT22;18182;1.328;103.810;2023-03-14T02:13:05;28.60;99.90
31575;DHT22;18182;1.328;103.810;2023-03-14T02:15:31;28.70;99.90
31575;DHT22;18182;1.328;103.810;2023-03-14T02:17:58;28.60;99.90
31575;DHT22;18182;1.328;103.810;2023-03-14T02:22:50;28.70;99.90
31575;DHT22;18182;1.328;103.810;2023-03-14T02:25:23;28.80;99.90
31575;DHT22;18182;1.328;103.810;2023-03-14T02:27:50;28.80;99.90
31575;DHT22;18182;1.328;103.810;2023-03-14T02:30:21;28.80;99.90
31575;DHT22;18182;1.328;103.810;2023-03-14T02:32:48;28.80;99.90
31575;DHT22;18182;1.328;103.810;2023-03-14T02:35:18;28.70;99.90
31575;DHT22;18182;1.328;103.810;2023-03-14T02:38:00;28.70;99.90
31575;DHT22;18182;1.328;103.810;2023-03-14T02:40:29;28.80;99.90
31575;DHT22;18182;1.328;103.810;2023-03-14T02:42:55;28.90;99.90
31575;DHT22;18182;1.328;103.810;2023-03-14T02:47:52;29.20;99.90
31575;DHT22;18182;1.328;103.810;2023-03-14T02:50:21;29.30;99.90
31575;DHT22;18182;1.328;103.810;2023-03-14T02:52:48;29.40;99.90
31575;DHT22;18182;1.328;103.810;2023-03-14T02:55:14;29.50;99.90
31575;DHT22;18182;1.328;103.810;2023-03-14T02:57:40;29.50;99.90
31575;DHT22;18182;1.328;103.810;2023-03-14T03:00:07;29.60;99.90
31575;DHT22;18182;1.328;103.810;2023-03-14T03:02:33;29.60;99.90
31575;DHT22;18182;1.328;103.810;2023-03-14T03:04:59;29.60;99.90
31575;DHT22;18182;1.328;103.810;2023-03-14T03:07:26;29.70;99.90
31575;DHT22;18182;1.328;103.810;2023-03-14T03:09:52;29.70;99.90
31575;DHT22;18182;1.328;103.810;2023-03-14T03:12:18;29.80;99.90
31575;DHT22;18182;1.328;103.810;2023-03-14T03:14:44;30.00;99.90
31575;DHT22;18182;1.328;103.810;2023-03-14T03:17:10;30.00;99.90
31575;DHT22;18182;1.328;103.810;2023-03-14T03:19:36;30.00;99.90
31575;DHT22;18182;1.328;103.810;2023-03-14T03:22:02;30.00;99.90
31575;DHT22;18182;1.328;103.810;2023-03-14T03:24:28;30.00;99.90
31575;DHT22;18182;1.328;103.810;2023-03-14T03:26:54;30.00;99.90
31575;DHT22;18182;1.328;103.810;2023-03-14T03:29:21;30.00;99.90
31575;DHT22;18182;1.328;103.810;2023-03-14T03:31:47;30.10;99.90
31575;DHT22;18182;1.328;103.810;2023-03-14T03:34:13;30.10;99.90
31575;DHT22;18182;1.328;103.810;2023-03-14T03:36:40;30.10;99.90
31575;DHT22;18182;1.328;103.810;2023-03-14T03:39:06;30.00;99.90
31575;DHT22;18182;1.328;103.810;2023-03-14T03:41:32;30.00;99.90
31575;DHT22;18182;1.328;103.810;2023-03-14T03:43:59;30.00;99.90
31575;DHT22;18182;1.328;103.810;2023-03-14T03:46:25;30.00;99.90
31575;DHT22;18182;1.328;103.810;2023-03-14T03:48:55;30.00;99.90
31575;DHT22;18182;1.328;103.810;2023-03-14T03:51:22;30.00;99.90
31575;DHT22;18182;1.328;103.810;2023-03-14T03:53:48;30.00;99.90
31575;DHT22;18182;1.328;103.810;2023-03-14T03:56:14;29.90;99.90
31575;DHT22;18182;1.328;103.810;2023-03-14T03:58:41;30.00;99.90
31575;DHT22;18182;1.328;103.810;2023-03-14T04:01:07;29.90;99.90
31575;DHT22;18182;1.328;103.810;2023-03-14T04:03:33;29.90;99.90
31575;DHT22;18182;1.328;103.810;2023-03-14T04:06:00;29.90;99.90
31575;DHT22;18182;1.328;103.810;2023-03-14T04:08:27;29.90;99.90
31575;DHT22;18182;1.328;103.810;2023-03-14T04:10:54;29.90;99.90
31575;DHT22;18182;1.328;103.810;2023-03-14T04:13:20;30.00;99.90
31575;DHT22;18182;1.328;103.810;2023-03-14T04:15:47;30.10;99.90
31575;DHT22;18182;1.328;103.810;2023-03-14T04:18:13;30.20;99.90
31575;DHT22;18182;1.328;103.810;2023-03-14T04:20:39;30.40;99.90
31575;DHT22;18182;1.328;103.810;2023-03-14T04:23:05;30.60;99.90
31575;DHT22;18182;1.328;103.810;2023-03-14T04:25:31;30.70;99.90
31575;DHT22;18182;1.328;103.810;2023-03-14T04:27:57;30.90;99.90
31575;DHT22;18182;1.328;103.810;2023-03-14T04:30:23;30.90;99.90
31575;DHT22;18182;1.328;103.810;2023-03-14T04:32:49;30.80;99.90
31575;DHT22;18182;1.328;103.810;2023-03-14T04:35:15;30.60;99.90
31575;DHT22;18182;1.328;103.810;2023-03-14T04:37:41;30.50;99.90
31575;DHT22;18182;1.328;103.810;2023-03-14T04:40:09;30.50;99.90
31575;DHT22;18182;1.328;103.810;2023-03-14T04:42:35;30.40;99.90
31575;DHT22;18182;1.328;103.810;2023-03-14T04:45:02;30.40;99.90
31575;DHT22;18182;1.328;103.810;2023-03-14T04:47:28;30.30;99.90
31575;DHT22;18182;1.328;103.810;2023-03-14T04:49:54;30.30;99.90
31575;DHT22;18182;1.328;103.810;2023-03-14T04:52:20;30.30;99.90
31575;DHT22;18182;1.328;103.810;2023-03-14T04:54:46;30.30;99.90
31575;DHT22;18182;1.328;103.810;2023-03-14T04:57:13;30.40;99.90
31575;DHT22;18182;1.328;103.810;2023-03-14T04:59:39;30.50;99.90
31575;DHT22;18182;1.328;103.810;2023-03-14T05:02:05;30.60;99.90
31575;DHT22;18182;1.328;103.810;2023-03-14T05:04:31;30.70;99.90
31575;DHT22;18182;1.328;103.810;2023-03-14T05:06:59;30.60;99.90
31575;DHT22;18182;1.328;103.810;2023-03-14T05:09:25;30.50;99.90
31575;DHT22;18182;1.328;103.810;2023-03-14T05:11:52;30.30;99.90
31575;DHT22;18182;1.328;103.810;2023-03-14T05:14:18;30.20;99.90
31575;DHT22;18182;1.328;103.810;2023-03-14T05:16:44;30.10;99.90
31575;DHT22;18182;1.328;103.810;2023-03-14T05:19:10;30.10;99.90
31575;DHT22;18182;1.328;103.810;2023-03-14T05:21:37;30.00;99.90
31575;DHT22;18182;1.328;103.810;2023-03-14T05:24:03;29.90;99.90
31575;DHT22;18182;1.328;103.810;2023-03-14T05:26:29;29.80;99.90
31575;DHT22;18182;1.328;103.810;2023-03-14T05:28:55;29.70;99.90
31575;DHT22;18182;1.328;103.810;2023-03-14T05:31:22;29.70;99.90
31575;DHT22;18182;1.328;103.810;2023-03-14T05:33:48;29.70;99.90
31575;DHT22;18182;1.328;103.810;2023-03-14T05:36:14;29.70;99.90
31575;DHT22;18182;1.328;103.810;2023-03-14T05:38:40;29.70;99.90
31575;DHT22;18182;1.328;103.810;2023-03-14T05:41:06;29.70;99.90
31575;DHT22;18182;1.328;103.810;2023-03-14T05:43:33;29.70;99.90
31575;DHT22;18182;1.328;103.810;2023-03-14T05:45:59;29.70;99.90
31575;DHT22;18182;1.328;103.810;2023-03-14T05:48:25;29.60;99.90
31575;DHT22;18182;1.328;103.810;2023-03-14T05:50:55;29.70;99.90
31575;DHT22;18182;1.328;103.810;2023-03-14T05:53:21;29.70;99.90
31575;DHT22;18182;1.328;103.810;2023-03-14T05:55:50;29.70;99.90
31575;DHT22;18182;1.328;103.810;2023-03-14T05:58:16;29.80;99.90
31575;DHT22;18182;1.328;103.810;2023-03-14T06:00:42;29.70;99.90
31575;DHT22;18182;1.328;103.810;2023-03-14T06:03:08;29.80;99.90
31575;DHT22;18182;1.328;103.810;2023-03-14T06:05:34;29.80;99.90
31575;DHT22;18182;1.328;103.810;2023-03-14T06:08:00;29.90;99.90
31575;DHT22;18182;1.328;103.810;2023-03-14T06:10:26;29.90;99.90
31575;DHT22;18182;1.328;103.810;2023-03-14T06:12:53;30.00;99.90
31575;DHT22;18182;1.328;103.810;2023-03-14T06:15:19;30.10;99.90
31575;DHT22;18182;1.328;103.810;2023-03-14T06:17:45;30.10;99.90
31575;DHT22;18182;1.328;103.810;2023-03-14T06:20:11;30.20;99.90
31575;DHT22;18182;1.328;103.810;2023-03-14T06:22:38;30.20;99.90
31575;DHT22;18182;1.328;103.810;2023-03-14T06:25:05;30.20;99.90
31575;DHT22;18182;1.328;103.810;2023-03-14T06:27:31;30.10;99.90
31575;DHT22;18182;1.328;103.810;2023-03-14T06:29:57;30.10;99.90
31575;DHT22;18182;1.328;103.810;2023-03-14T06:32:23;30.00;99.90
31575;DHT22;18182;1.328;103.810;2023-03-14T06:34:50;29.90;99.90
31575;DHT22;18182;1.328;103.810;2023-03-14T06:37:16;29.80;99.90
31575;DHT22;18182;1.328;103.810;2023-03-14T06:39:42;29.80;99.90
31575;DHT22;18182;1.328;103.810;2023-03-14T06:42:10;29.80;99.90
31575;DHT22;18182;1.328;103.810;2023-03-14T06:44:36;29.80;99.90
31575;DHT22;18182;1.328;103.810;2023-03-14T06:47:02;29.80;99.90
31575;DHT22;18182;1.328;103.810;2023-03-14T06:49:29;29.80;99.90
31575;DHT22;18182;1.328;103.810;2023-03-14T06:51:55;29.80;99.90
31575;DHT22;18182;1.328;103.810;2023-03-14T06:54:22;29.80;99.90
31575;DHT22;18182;1.328;103.810;2023-03-14T06:56:48;29.80;99.90
31575;DHT22;18182;1.328;103.810;2023-03-14T06:59:14;29.80;99.90
31575;DHT22;18182;1.328;103.810;2023-03-14T07:01:40;29.90;99.90
31575;DHT22;18182;1.328;103.810;2023-03-14T07:04:06;29.90;99.90
31575;DHT22;18182;1.328;103.810;2023-03-14T07:06:33;30.00;99.90
31575;DHT22;18182;1.328;103.810;2023-03-14T07:08:59;29.90;99.90
31575;DHT22;18182;1.328;103.810;2023-03-14T07:11:25;29.90;99.90
31575;DHT22;18182;1.328;103.810;2023-03-14T07:13:52;29.90;99.90
31575;DHT22;18182;1.328;103.810;2023-03-14T07:16:18;29.80;99.90
31575;DHT22;18182;1.328;103.810;2023-03-14T07:18:44;29.80;99.90
31575;DHT22;18182;1.328;103.810;2023-03-14T07:21:10;29.70;99.90
31575;DHT22;18182;1.328;103.810;2023-03-14T07:23:36;29.70;99.90
31575;DHT22;18182;1.328;103.810;2023-03-14T07:26:02;29.70;99.90
31575;DHT22;18182;1.328;103.810;2023-03-14T07:28:29;29.70;99.90
31575;DHT22;18182;1.328;103.810;2023-03-14T07:30:55;29.70;99.90
31575;DHT22;18182;1.328;103.810;2023-03-14T07:33:21;29.60;99.90
31575;DHT22;18182;1.328;103.810;2023-03-14T07:35:48;29.70;99.90
31575;DHT22;18182;1.328;103.810;2023-03-14T07:38:14;29.80;99.90
31575;DHT22;18182;1.328;103.810;2023-03-14T07:40:40;30.10;99.90
31575;DHT22;18182;1.328;103.810;2023-03-14T07:43:06;30.20;99.90
31575;DHT22;18182;1.328;103.810;2023-03-14T07:45:33;30.30;99.90
31575;DHT22;18182;1.328;103.810;2023-03-14T07:47:59;30.30;99.90
31575;DHT22;18182;1.328;103.810;2023-03-14T07:50:27;30.40;99.90
31575;DHT22;18182;1.328;103.810;2023-03-14T07:52:54;30.40;99.90
31575;DHT22;18182;1.328;103.810;2023-03-14T07:55:20;30.40;99.90
31575;DHT22;18182;1.328;103.810;2023-03-14T07:57:46;30.50;99.90
31575;DHT22;18182;1.328;103.810;2023-03-14T08:00:13;30.50;99.90
31575;DHT22;18182;1.328;103.810;2023-03-14T08:02:42;30.60;99.90
31575;DHT22;18182;1.328;103.810;2023-03-14T08:05:08;30.70;99.90
31575;DHT22;18182;1.328;103.810;2023-03-14T08:07:34;30.60;99.90
31575;DHT22;18182;1.328;103.810;2023-03-14T08:10:00;30.70;99.90
31575;DHT22;18182;1.328;103.810;2023-03-14T08:12:27;30.70;99.90
31575;DHT22;18182;1.328;103.810;2023-03-14T08:14:53;30.80;99.90
31575;DHT22;18182;1.328;103.810;2023-03-14T08:17:19;30.80;99.90
31575;DHT22;18182;1.328;103.810;2023-03-14T08:19:45;30.70;99.90
31575;DHT22;18182;1.328;103.810;2023-03-14T08:22:11;30.60;99.90
31575;DHT22;18182;1.328;103.810;2023-03-14T08:24:37;30.50;99.90
31575;DHT22;18182;1.328;103.810;2023-03-14T08:27:03;30.50;99.90
31575;DHT22;18182;1.328;103.810;2023-03-14T08:29:30;30.50;99.90
31575;DHT22;18182;1.328;103.810;2023-03-14T08:31:56;30.50;99.90
31575;DHT22;18182;1.328;103.810;2023-03-14T08:34:22;30.40;99.90
31575;DHT22;18182;1.328;103.810;2023-03-14T08:36:48;30.30;99.90
31575;DHT22;18182;1.328;103.810;2023-03-14T08:39:14;30.30;99.90
31575;DHT22;18182;1.328;103.810;2023-03-14T08:41:40;30.20;99.90
31575;DHT22;18182;1.328;103.810;2023-03-14T08:44:08;30.30;99.90
31575;DHT22;18182;1.328;103.810;2023-03-14T08:46:35;30.20;99.90
31575;DHT22;18182;1.328;103.810;2023-03-14T08:49:01;30.20;99.90
31575;DHT22;18182;1.328;103.810;2023-03-14T08:51:27;30.10;99.90
31575;DHT22;18182;1.328;103.810;2023-03-14T08:53:53;30.00;99.90
31575;DHT22;18182;1.328;103.810;2023-03-14T08:56:19;29.80;99.90
31575;DHT22;18182;1.328;103.810;2023-03-14T08:58:45;29.80;99.90
31575;DHT22;18182;1.328;103.810;2023-03-14T09:01:11;29.80;99.90
31575;DHT22;18182;1.328;103.810;2023-03-14T09:03:38;29.70;99.90
31575;DHT22;18182;1.328;103.810;2023-03-14T09:06:04;29.60;99.90
31575;DHT22;18182;1.328;103.810;2023-03-14T09:08:31;29.60;99.90
31575;DHT22;18182;1.328;103.810;2023-03-14T09:10:57;29.60;99.90
31575;DHT22;18182;1.328;103.810;2023-03-14T09:13:23;29.60;99.90
31575;DHT22;18182;1.328;103.810;2023-03-14T09:15:52;29.50;99.90
31575;DHT22;18182;1.328;103.810;2023-03-14T09:18:19;29.60;99.90
31575;DHT22;18182;1.328;103.810;2023-03-14T09:20:45;29.60;99.90
31575;DHT22;18182;1.328;103.810;2023-03-14T09:23:11;29.60;99.90
31575;DHT22;18182;1.328;103.810;2023-03-14T09:25:38;29.60;99.90
31575;DHT22;18182;1.328;103.810;2023-03-14T09:28:04;29.50;99.90
31575;DHT22;18182;1.328;103.810;2023-03-14T09:30:30;29.50;99.90
31575;DHT22;18182;1.328;103.810;2023-03-14T09:32:56;29.40;99.90
31575;DHT22;18182;1.328;103.810;2023-03-14T09:35:23;29.30;99.90
31575;DHT22;18182;1.328;103.810;2023-03-14T09:37:49;29.30;99.90
31575;DHT22;18182;1.328;103.810;2023-03-14T09:40:16;29.20;99.90
31575;DHT22;18182;1.328;103.810;2023-03-14T09:42:43;29.20;99.90
31575;DHT22;18182;1.328;103.810;2023-03-14T09:45:17;29.20;99.90
31575;DHT22;18182;1.328;103.810;2023-03-14T09:47:44;29.20;99.90
31575;DHT22;18182;1.328;103.810;2023-03-14T09:50:14;29.20;99.90
31575;DHT22;18182;1.328;103.810;2023-03-14T09:52:42;29.20;99.90
31575;DHT22;18182;1.328;103.810;2023-03-14T09:55:16;29.20;99.90
31575;DHT22;18182;1.328;103.810;2023-03-14T09:57:43;29.20;99.90
31575;DHT22;18182;1.328;103.810;2023-03-14T10:00:13;29.20;99.90
31575;DHT22;18182;1.328;103.810;2023-03-14T10:02:41;29.20;99.90
31575;DHT22;18182;1.328;103.810;2023-03-14T10:05:13;29.20;99.90
31575;DHT22;18182;1.328;103.810;2023-03-14T10:07:40;29.20;99.90
31575;DHT22;18182;1.328;103.810;2023-03-14T10:10:39;29.20;99.90
31575;DHT22;18182;1.328;103.810;2023-03-14T10:12:59;29.20;99.90
31575;DHT22;18182;1.328;103.810;2023-03-14T10:15:30;29.10;99.90
31575;DHT22;18182;1.328;103.810;2023-03-14T10:17:58;29.10;99.90
31575;DHT22;18182;1.328;103.810;2023-03-14T10:22:58;29.00;99.90
31575;DHT22;18182;1.328;103.810;2023-03-14T10:25:58;29.00;99.90
31575;DHT22;18182;1.328;103.810;2023-03-14T10:28:24;28.90;99.90
31575;DHT22;18182;1.328;103.810;2023-03-14T10:30:52;28.90;99.90
31575;DHT22;18182;1.328;103.810;2023-03-14T10:35:44;28.80;99.90
31575;DHT22;18182;1.328;103.810;2023-03-14T10:38:15;28.90;99.90
31575;DHT22;18182;1.328;103.810;2023-03-14T10:40:51;28.80;99.90
31575;DHT22;18182;1.328;103.810;2023-03-14T10:43:19;28.80;99.90
31575;DHT22;18182;1.328;103.810;2023-03-14T10:45:56;28.80;99.90
31575;DHT22;18182;1.328;103.810;2023-03-14T10:48:25;28.80;99.90
31575;DHT22;18182;1.328;103.810;2023-03-14T10:50:56;28.70;99.90
31575;DHT22;18182;1.328;103.810;2023-03-14T10:53:23;28.70;99.90
31575;DHT22;18182;1.328;103.810;2023-03-14T10:55:49;28.70;99.90
31575;DHT22;18182;1.328;103.810;2023-03-14T11:00:46;28.60;99.90
31575;DHT22;18182;1.328;103.810;2023-03-14T11:03:16;28.70;99.90
31575;DHT22;18182;1.328;103.810;2023-03-14T11:05:45;28.70;99.90
31575;DHT22;18182;1.328;103.810;2023-03-14T11:10:39;28.70;99.90
31575;DHT22;18182;1.328;103.810;2023-03-14T11:23:41;28.60;99.90
31575;DHT22;18182;1.328;103.810;2023-03-14T11:28:46;28.60;99.90
31575;DHT22;18182;1.328;103.810;2023-03-14T11:36:28;28.50;99.90
31575;DHT22;18182;1.328;103.810;2023-03-14T11:38:57;28.50;99.90
31575;DHT22;18182;1.328;103.810;2023-03-14T11:41:32;28.50;99.90
31575;DHT22;18182;1.328;103.810;2023-03-14T11:44:00;28.50;99.90
31575;DHT22;18182;1.328;103.810;2023-03-14T11:46:38;28.50;99.90
31575;DHT22;18182;1.328;103.810;2023-03-14T11:51:50;28.50;99.90
31575;DHT22;18182;1.328;103.810;2023-03-14T11:55:00;28.40;99.90
31575;DHT22;18182;1.328;103.810;2023-03-14T11:57:12;28.40;99.90
31575;DHT22;18182;1.328;103.810;2023-03-14T11:59:44;28.40;99.90
31575;DHT22;18182;1.328;103.810;2023-03-14T12:10:10;28.60;99.90
31575;DHT22;18182;1.328;103.810;2023-03-14T12:12:36;28.60;99.90
31575;DHT22;18182;1.328;103.810;2023-03-14T12:15:04;28.70;99.90
31575;DHT22;18182;1.328;103.810;2023-03-14T12:17:40;28.70;99.90
31575;DHT22;18182;1.328;103.810;2023-03-14T12:22:47;28.80;99.90
31575;DHT22;18182;1.328;103.810;2023-03-14T12:25:15;28.80;99.90
31575;DHT22;18182;1.328;103.810;2023-03-14T12:27:47;28.70;99.90
31575;DHT22;18182;1.328;103.810;2023-03-14T12:30:15;28.70;99.90
31575;DHT22;18182;1.328;103.810;2023-03-14T12:32:42;28.80;99.90
31575;DHT22;18182;1.328;103.810;2023-03-14T12:37:52;28.80;99.90
31575;DHT22;18182;1.328;103.810;2023-03-14T12:40:21;28.80;99.90
31575;DHT22;18182;1.328;103.810;2023-03-14T12:45:25;28.80;99.90
31575;DHT22;18182;1.328;103.810;2023-03-14T12:47:55;28.80;99.90
31575;DHT22;18182;1.328;103.810;2023-03-14T12:50:26;28.70;99.90
31575;DHT22;18182;1.328;103.810;2023-03-14T12:55:44;28.70;99.90
31575;DHT22;18182;1.328;103.810;2023-03-14T12:58:17;28.60;99.90
31575;DHT22;18182;1.328;103.810;2023-03-14T13:00:51;28.60;99.90
31575;DHT22;18182;1.328;103.810;2023-03-14T13:03:21;28.60;99.90
31575;DHT22;18182;1.328;103.810;2023-03-14T13:05:57;28.60;99.90
31575;DHT22;18182;1.328;103.810;2023-03-14T13:08:37;28.60;99.90
31575;DHT22;18182;1.328;103.810;2023-03-14T13:11:05;28.60;99.90
31575;DHT22;18182;1.328;103.810;2023-03-14T13:13:32;28.60;99.90
31575;DHT22;18182;1.328;103.810;2023-03-14T13:16:00;28.50;99.90
31575;DHT22;18182;1.328;103.810;2023-03-14T13:21:02;28.50;99.90
31575;DHT22;18182;1.328;103.810;2023-03-14T13:23:30;28.50;99.90
31575;DHT22;18182;1.328;103.810;2023-03-14T13:25:56;28.50;99.90
31575;DHT22;18182;1.328;103.810;2023-03-14T13:28:23;28.50;99.90
31575;DHT22;18182;1.328;103.810;2023-03-14T13:30:50;28.50;99.90
31575;DHT22;18182;1.328;103.810;2023-03-14T13:33:18;28.50;99.90
31575;DHT22;18182;1.328;103.810;2023-03-14T13:35:46;28.50;99.90
31575;DHT22;18182;1.328;103.810;2023-03-14T13:38:31;28.40;99.90
31575;DHT22;18182;1.328;103.810;2023-03-14T13:40:58;28.40;99.90
31575;DHT22;18182;1.328;103.810;2023-03-14T13:43:40;28.40;99.90
31575;DHT22;18182;1.328;103.810;2023-03-14T13:46:14;28.40;99.90
31575;DHT22;18182;1.328;103.810;2023-03-14T13:49:00;28.40;99.90
31575;DHT22;18182;1.328;103.810;2023-03-14T13:51:27;28.40;99.90
31575;DHT22;18182;1.328;103.810;2023-03-14T13:53:57;28.40;99.90
31575;DHT22;18182;1.328;103.810;2023-03-14T13:56:25;28.40;99.90
31575;DHT22;18182;1.328;103.810;2023-03-14T13:58:51;28.40;99.90
31575;DHT22;18182;1.328;103.810;2023-03-14T14:01:19;28.40;99.90
31575;DHT22;18182;1.328;103.810;2023-03-14T14:03:49;28.40;99.90
31575;DHT22;18182;1.328;103.810;2023-03-14T14:08:48;28.30;99.90
31575;DHT22;18182;1.328;103.810;2023-03-14T14:11:18;28.30;99.90
31575;DHT22;18182;1.328;103.810;2023-03-14T14:13:46;28.30;99.90
31575;DHT22;18182;1.328;103.810;2023-03-14T14:16:12;28.40;99.90
31575;DHT22;18182;1.328;103.810;2023-03-14T14:18:40;28.40;99.90
31575;DHT22;18182;1.328;103.810;2023-03-14T14:21:06;28.30;99.90
31575;DHT22;18182;1.328;103.810;2023-03-14T14:23:32;28.30;99.90
31575;DHT22;18182;1.328;103.810;2023-03-14T14:25:59;28.30;99.90
31575;DHT22;18182;1.328;103.810;2023-03-14T14:28:27;28.30;99.90
31575;DHT22;18182;1.328;103.810;2023-03-14T14:33:39;28.20;99.90
31575;DHT22;18182;1.328;103.810;2023-03-14T14:36:12;28.30;99.90
31575;DHT22;18182;1.328;103.810;2023-03-14T14:38:40;28.30;99.90
31575;DHT22;18182;1.328;103.810;2023-03-14T14:41:10;28.30;99.90
31575;DHT22;18182;1.328;103.810;2023-03-14T14:43:38;28.20;99.90
31575;DHT22;18182;1.328;103.810;2023-03-14T14:46:06;28.20;99.90
31575;DHT22;18182;1.328;103.810;2023-03-14T14:48:35;28.20;99.90
31575;DHT22;18182;1.328;103.810;2023-03-14T14:51:03;28.20;99.90
31575;DHT22;18182;1.328;103.810;2023-03-14T14:56:00;28.20;99.90
31575;DHT22;18182;1.328;103.810;2023-03-14T14:58:32;28.20;99.90
31575;DHT22;18182;1.328;103.810;2023-03-14T15:01:03;28.20;99.90
31575;DHT22;18182;1.328;103.810;2023-03-14T15:03:30;28.20;99.90
31575;DHT22;18182;1.328;103.810;2023-03-14T15:05:57;28.20;99.90
31575;DHT22;18182;1.328;103.810;2023-03-14T15:08:26;28.20;99.90
31575;DHT22;18182;1.328;103.810;2023-03-14T15:10:53;28.20;99.90
31575;DHT22;18182;1.328;103.810;2023-03-14T15:13:20;28.20;99.90
31575;DHT22;18182;1.328;103.810;2023-03-14T15:15:46;28.10;99.90
31575;DHT22;18182;1.328;103.810;2023-03-14T15:18:16;28.20;99.90
31575;DHT22;18182;1.328;103.810;2023-03-14T15:20:43;28.20;99.90
31575;DHT22;18182;1.328;103.810;2023-03-14T15:23:17;28.20;99.90
31575;DHT22;18182;1.328;103.810;2023-03-14T15:25:43;28.20;99.90
31575;DHT22;18182;1.328;103.810;2023-03-14T15:30:37;28.20;99.90
31575;DHT22;18182;1.328;103.810;2023-03-14T15:33:03;28.20;99.90
31575;DHT22;18182;1.328;103.810;2023-03-14T15:35:31;28.20;99.90
31575;DHT22;18182;1.328;103.810;2023-03-14T15:37:57;28.20;99.90
31575;DHT22;18182;1.328;103.810;2023-03-14T15:40:24;28.20;99.90
31575;DHT22;18182;1.328;103.810;2023-03-14T15:42:50;28.20;99.90
31575;DHT22;18182;1.328;103.810;2023-03-14T15:45:16;28.20;99.90
31575;DHT22;18182;1.328;103.810;2023-03-14T15:47:42;28.20;99.90
31575;DHT22;18182;1.328;103.810;2023-03-14T15:50:09;28.20;99.90
31575;DHT22;18182;1.328;103.810;2023-03-14T15:52:36;28.20;99.90
31575;DHT22;18182;1.328;103.810;2023-03-14T15:55:02;28.20;99.90
31575;DHT22;18182;1.328;103.810;2023-03-14T15:57:28;28.20;99.90
31575;DHT22;18182;1.328;103.810;2023-03-14T15:59:54;28.20;99.90
31575;DHT22;18182;1.328;103.810;2023-03-14T16:02:20;28.20;99.90
31575;DHT22;18182;1.328;103.810;2023-03-14T16:04:46;28.20;99.90
31575;DHT22;18182;1.328;103.810;2023-03-14T16:07:12;28.20;99.90
31575;DHT22;18182;1.328;103.810;2023-03-14T16:09:39;28.20;99.90
31575;DHT22;18182;1.328;103.810;2023-03-14T16:12:05;28.20;99.90
31575;DHT22;18182;1.328;103.810;2023-03-14T16:14:33;28.20;99.90
31575;DHT22;18182;1.328;103.810;2023-03-14T16:16:59;28.20;99.90
31575;DHT22;18182;1.328;103.810;2023-03-14T16:19:25;28.20;99.90
31575;DHT22;18182;1.328;103.810;2023-03-14T16:21:52;28.20;99.90
31575;DHT22;18182;1.328;103.810;2023-03-14T16:24:18;28.20;99.90
31575;DHT22;18182;1.328;103.810;2023-03-14T16:26:44;28.20;99.90